sensor_id;sensor_type;location;lat;lon;timestamp;P1;durP1;ratioP1;P2;durP2;ratioP2
26634;SDS011;14490;54.208;37.686;2022-08-19T00:00:39;5.93;;;2.47;;
26634;SDS011;14490;54.208;37.686;2022-08-19T00:03:08;5.32;;;2.60;;
26634;SDS011;14490;54.208;37.686;2022-08-19T00:05:36;8.23;;;2.33;;
26634;SDS011;14490;54.208;37.686;2022-08-19T00:08:05;4.57;;;2.03;;
26634;SDS011;14490;54.208;37.686;2022-08-19T00:10:33;3.72;;;2.05;;
26634;SDS011;14490;54.208;37.686;2022-08-19T00:13:01;4.75;;;2.60;;
26634;SDS011;14490;54.208;37.686;2022-08-19T00:15:29;4.35;;;2.80;;
26634;SDS011;14490;54.208;37.686;2022-08-19T00:17:57;3.92;;;2.40;;
26634;SDS011;14490;54.208;37.686;2022-08-19T00:20:26;3.97;;;2.05;;
26634;SDS011;14490;54.208;37.686;2022-08-19T00:22:54;5.32;;;2.70;;
26634;SDS011;14490;54.208;37.686;2022-08-19T00:25:22;8.88;;;2.35;;
26634;SDS011;14490;54.208;37.686;2022-08-19T00:27:50;4.75;;;2.47;;
26634;SDS011;14490;54.208;37.686;2022-08-19T00:30:17;3.65;;;2.72;;
26634;SDS011;14490;54.208;37.686;2022-08-19T00:32:45;4.20;;;2.88;;
26634;SDS011;14490;54.208;37.686;2022-08-19T00:35:12;5.10;;;3.00;;
26634;SDS011;14490;54.208;37.686;2022-08-19T00:37:42;9.52;;;3.00;;
26634;SDS011;14490;54.208;37.686;2022-08-19T00:40:10;9.65;;;3.10;;
26634;SDS011;14490;54.208;37.686;2022-08-19T00:42:39;10.07;;;3.80;;
26634;SDS011;14490;54.208;37.686;2022-08-19T00:45:10;5.93;;;3.20;;
26634;SDS011;14490;54.208;37.686;2022-08-19T00:47:42;5.05;;;3.20;;
26634;SDS011;14490;54.208;37.686;2022-08-19T00:50:11;6.38;;;4.43;;
26634;SDS011;14490;54.208;37.686;2022-08-19T00:52:46;7.60;;;4.03;;
26634;SDS011;14490;54.208;37.686;2022-08-19T00:55:17;6.35;;;4.18;;
26634;SDS011;14490;54.208;37.686;2022-08-19T00:57:49;8.88;;;4.25;;
26634;SDS011;14490;54.208;37.686;2022-08-19T01:00:22;10.30;;;4.88;;
26634;SDS011;14490;54.208;37.686;2022-08-19T01:02:52;16.23;;;7.40;;
26634;SDS011;14490;54.208;37.686;2022-08-19T01:05:22;8.65;;;4.97;;
26634;SDS011;14490;54.208;37.686;2022-08-19T01:07:55;13.68;;;5.88;;
26634;SDS011;14490;54.208;37.686;2022-08-19T01:10:27;9.85;;;6.13;;
26634;SDS011;14490;54.208;37.686;2022-08-19T01:15:26;16.70;;;6.22;;
26634;SDS011;14490;54.208;37.686;2022-08-19T01:17:59;12.30;;;7.32;;
26634;SDS011;14490;54.208;37.686;2022-08-19T01:20:34;13.77;;;7.10;;
26634;SDS011;14490;54.208;37.686;2022-08-19T01:23:04;8.38;;;6.35;;
26634;SDS011;14490;54.208;37.686;2022-08-19T01:25:32;12.25;;;6.88;;
26634;SDS011;14490;54.208;37.686;2022-08-19T01:28:06;12.85;;;6.50;;
26634;SDS011;14490;54.208;37.686;2022-08-19T01:30:34;11.80;;;7.32;;
26634;SDS011;14490;54.208;37.686;2022-08-19T01:33:03;9.68;;;6.93;;
26634;SDS011;14490;54.208;37.686;2022-08-19T01:35:31;15.07;;;7.20;;
26634;SDS011;14490;54.208;37.686;2022-08-19T01:38:00;12.15;;;7.32;;
26634;SDS011;14490;54.208;37.686;2022-08-19T01:40:35;9.55;;;6.65;;
26634;SDS011;14490;54.208;37.686;2022-08-19T01:43:07;15.00;;;7.22;;
26634;SDS011;14490;54.208;37.686;2022-08-19T01:45:35;12.95;;;6.63;;
26634;SDS011;14490;54.208;37.686;2022-08-19T01:48:05;12.68;;;6.68;;
26634;SDS011;14490;54.208;37.686;2022-08-19T01:50:34;13.68;;;6.68;;
26634;SDS011;14490;54.208;37.686;2022-08-19T01:53:04;14.50;;;7.70;;
26634;SDS011;14490;54.208;37.686;2022-08-19T01:58:06;17.17;;;8.55;;
26634;SDS011;14490;54.208;37.686;2022-08-19T02:00:39;16.85;;;8.48;;
26634;SDS011;14490;54.208;37.686;2022-08-19T02:03:07;17.98;;;9.23;;
26634;SDS011;14490;54.208;37.686;2022-08-19T02:05:36;22.77;;;10.30;;
26634;SDS011;14490;54.208;37.686;2022-08-19T02:08:04;22.05;;;10.38;;
26634;SDS011;14490;54.208;37.686;2022-08-19T02:10:32;17.98;;;9.38;;
26634;SDS011;14490;54.208;37.686;2022-08-19T02:13:01;22.33;;;10.55;;
26634;SDS011;14490;54.208;37.686;2022-08-19T02:15:29;17.73;;;9.05;;
26634;SDS011;14490;54.208;37.686;2022-08-19T02:17:57;19.33;;;9.18;;
26634;SDS011;14490;54.208;37.686;2022-08-19T02:20:25;13.82;;;8.80;;
26634;SDS011;14490;54.208;37.686;2022-08-19T02:22:52;19.13;;;9.88;;
26634;SDS011;14490;54.208;37.686;2022-08-19T02:25:20;24.95;;;9.00;;
26634;SDS011;14490;54.208;37.686;2022-08-19T02:27:48;18.25;;;7.25;;
26634;SDS011;14490;54.208;37.686;2022-08-19T02:30:17;12.23;;;8.02;;
26634;SDS011;14490;54.208;37.686;2022-08-19T02:32:45;16.58;;;8.23;;
26634;SDS011;14490;54.208;37.686;2022-08-19T02:35:13;11.20;;;6.65;;
26634;SDS011;14490;54.208;37.686;2022-08-19T02:37:42;12.88;;;6.55;;
26634;SDS011;14490;54.208;37.686;2022-08-19T02:40:27;8.32;;;6.28;;
26634;SDS011;14490;54.208;37.686;2022-08-19T02:45:33;9.45;;;5.40;;
26634;SDS011;14490;54.208;37.686;2022-08-19T02:48:02;10.20;;;4.47;;
26634;SDS011;14490;54.208;37.686;2022-08-19T02:50:30;9.32;;;4.85;;
26634;SDS011;14490;54.208;37.686;2022-08-19T02:52:58;7.07;;;4.53;;
26634;SDS011;14490;54.208;37.686;2022-08-19T02:55:28;8.48;;;4.90;;
26634;SDS011;14490;54.208;37.686;2022-08-19T02:57:55;7.47;;;4.60;;
26634;SDS011;14490;54.208;37.686;2022-08-19T03:00:23;6.10;;;4.13;;
26634;SDS011;14490;54.208;37.686;2022-08-19T03:02:52;6.03;;;4.07;;
26634;SDS011;14490;54.208;37.686;2022-08-19T03:05:21;4.22;;;3.78;;
26634;SDS011;14490;54.208;37.686;2022-08-19T03:07:48;4.05;;;3.45;;
26634;SDS011;14490;54.208;37.686;2022-08-19T03:10:16;8.30;;;4.10;;
26634;SDS011;14490;54.208;37.686;2022-08-19T03:12:44;9.10;;;4.22;;
26634;SDS011;14490;54.208;37.686;2022-08-19T03:15:12;5.22;;;3.55;;
26634;SDS011;14490;54.208;37.686;2022-08-19T03:17:40;8.82;;;3.60;;
26634;SDS011;14490;54.208;37.686;2022-08-19T03:20:10;4.80;;;3.33;;
26634;SDS011;14490;54.208;37.686;2022-08-19T03:22:37;6.78;;;3.30;;
26634;SDS011;14490;54.208;37.686;2022-08-19T03:25:05;6.32;;;3.03;;
26634;SDS011;14490;54.208;37.686;2022-08-19T03:27:34;11.18;;;3.90;;
26634;SDS011;14490;54.208;37.686;2022-08-19T03:30:01;7.82;;;3.17;;
26634;SDS011;14490;54.208;37.686;2022-08-19T03:32:31;4.05;;;2.78;;
26634;SDS011;14490;54.208;37.686;2022-08-19T03:34:59;8.63;;;3.40;;
26634;SDS011;14490;54.208;37.686;2022-08-19T03:37:29;6.25;;;3.17;;
26634;SDS011;14490;54.208;37.686;2022-08-19T03:39:57;7.28;;;3.20;;
26634;SDS011;14490;54.208;37.686;2022-08-19T03:42:25;3.72;;;2.90;;
26634;SDS011;14490;54.208;37.686;2022-08-19T03:44:52;5.65;;;3.03;;
26634;SDS011;14490;54.208;37.686;2022-08-19T03:47:20;5.28;;;3.03;;
26634;SDS011;14490;54.208;37.686;2022-08-19T03:49:48;3.78;;;2.40;;
26634;SDS011;14490;54.208;37.686;2022-08-19T03:52:15;3.35;;;2.88;;
26634;SDS011;14490;54.208;37.686;2022-08-19T03:54:45;5.35;;;2.47;;
26634;SDS011;14490;54.208;37.686;2022-08-19T03:57:12;8.88;;;2.60;;
26634;SDS011;14490;54.208;37.686;2022-08-19T03:59:40;4.65;;;2.47;;
26634;SDS011;14490;54.208;37.686;2022-08-19T04:02:10;7.70;;;2.55;;
26634;SDS011;14490;54.208;37.686;2022-08-19T04:04:40;6.57;;;2.95;;
26634;SDS011;14490;54.208;37.686;2022-08-19T04:07:11;4.65;;;2.72;;
26634;SDS011;14490;54.208;37.686;2022-08-19T04:09:41;4.85;;;2.95;;
26634;SDS011;14490;54.208;37.686;2022-08-19T04:12:10;5.63;;;2.53;;
26634;SDS011;14490;54.208;37.686;2022-08-19T04:14:38;2.97;;;1.95;;
26634;SDS011;14490;54.208;37.686;2022-08-19T04:17:05;2.90;;;1.95;;
26634;SDS011;14490;54.208;37.686;2022-08-19T04:19:34;5.00;;;2.53;;
26634;SDS011;14490;54.208;37.686;2022-08-19T04:22:03;5.15;;;2.20;;
26634;SDS011;14490;54.208;37.686;2022-08-19T04:24:32;2.67;;;2.35;;
26634;SDS011;14490;54.208;37.686;2022-08-19T04:27:01;4.75;;;2.60;;
26634;SDS011;14490;54.208;37.686;2022-08-19T04:29:32;4.35;;;2.20;;
26634;SDS011;14490;54.208;37.686;2022-08-19T04:32:00;3.78;;;2.45;;
26634;SDS011;14490;54.208;37.686;2022-08-19T04:34:30;8.80;;;2.22;;
26634;SDS011;14490;54.208;37.686;2022-08-19T04:36:58;2.53;;;1.88;;
26634;SDS011;14490;54.208;37.686;2022-08-19T04:39:26;2.78;;;2.03;;
26634;SDS011;14490;54.208;37.686;2022-08-19T04:42:15;3.35;;;2.13;;
26634;SDS011;14490;54.208;37.686;2022-08-19T04:45:02;5.43;;;2.35;;
26634;SDS011;14490;54.208;37.686;2022-08-19T04:47:31;3.00;;;2.53;;
26634;SDS011;14490;54.208;37.686;2022-08-19T04:49:59;2.95;;;2.00;;
26634;SDS011;14490;54.208;37.686;2022-08-19T04:52:27;3.70;;;2.00;;
26634;SDS011;14490;54.208;37.686;2022-08-19T04:54:57;3.00;;;2.10;;
26634;SDS011;14490;54.208;37.686;2022-08-19T04:57:24;3.67;;;2.00;;
26634;SDS011;14490;54.208;37.686;2022-08-19T04:59:53;3.90;;;1.70;;
26634;SDS011;14490;54.208;37.686;2022-08-19T05:02:23;8.27;;;2.85;;
26634;SDS011;14490;54.208;37.686;2022-08-19T05:04:51;6.05;;;2.08;;
26634;SDS011;14490;54.208;37.686;2022-08-19T05:07:24;8.45;;;2.45;;
26634;SDS011;14490;54.208;37.686;2022-08-19T05:09:52;3.05;;;2.10;;
26634;SDS011;14490;54.208;37.686;2022-08-19T05:12:20;4.18;;;1.80;;
26634;SDS011;14490;54.208;37.686;2022-08-19T05:14:48;1.88;;;1.73;;
26634;SDS011;14490;54.208;37.686;2022-08-19T05:17:17;7.03;;;1.85;;
26634;SDS011;14490;54.208;37.686;2022-08-19T05:19:46;3.75;;;2.30;;
26634;SDS011;14490;54.208;37.686;2022-08-19T05:22:46;6.95;;;2.17;;
26634;SDS011;14490;54.208;37.686;2022-08-19T05:25:16;7.05;;;2.60;;
26634;SDS011;14490;54.208;37.686;2022-08-19T05:27:46;5.53;;;1.98;;
26634;SDS011;14490;54.208;37.686;2022-08-19T05:30:15;3.72;;;2.20;;
26634;SDS011;14490;54.208;37.686;2022-08-19T05:32:43;3.25;;;2.40;;
26634;SDS011;14490;54.208;37.686;2022-08-19T05:35:12;5.18;;;2.00;;
26634;SDS011;14490;54.208;37.686;2022-08-19T05:37:40;4.40;;;2.22;;
26634;SDS011;14490;54.208;37.686;2022-08-19T05:40:08;6.22;;;2.00;;
26634;SDS011;14490;54.208;37.686;2022-08-19T05:42:37;3.70;;;2.40;;
26634;SDS011;14490;54.208;37.686;2022-08-19T05:45:09;3.65;;;2.08;;
26634;SDS011;14490;54.208;37.686;2022-08-19T05:47:37;7.43;;;2.92;;
26634;SDS011;14490;54.208;37.686;2022-08-19T05:50:05;4.35;;;2.33;;
26634;SDS011;14490;54.208;37.686;2022-08-19T05:52:36;5.25;;;2.25;;
26634;SDS011;14490;54.208;37.686;2022-08-19T05:55:09;4.57;;;2.58;;
26634;SDS011;14490;54.208;37.686;2022-08-19T05:57:39;2.38;;;2.17;;
26634;SDS011;14490;54.208;37.686;2022-08-19T06:00:10;6.80;;;3.25;;
26634;SDS011;14490;54.208;37.686;2022-08-19T06:02:39;6.25;;;2.67;;
26634;SDS011;14490;54.208;37.686;2022-08-19T06:05:08;4.32;;;2.55;;
26634;SDS011;14490;54.208;37.686;2022-08-19T06:07:38;3.83;;;3.28;;
26634;SDS011;14490;54.208;37.686;2022-08-19T06:10:07;7.10;;;3.20;;
26634;SDS011;14490;54.208;37.686;2022-08-19T06:12:37;5.85;;;4.35;;
26634;SDS011;14490;54.208;37.686;2022-08-19T06:15:06;7.20;;;3.90;;
26634;SDS011;14490;54.208;37.686;2022-08-19T06:17:37;9.27;;;4.03;;
26634;SDS011;14490;54.208;37.686;2022-08-19T06:20:07;11.32;;;5.35;;
26634;SDS011;14490;54.208;37.686;2022-08-19T06:22:40;9.25;;;4.80;;
26634;SDS011;14490;54.208;37.686;2022-08-19T06:25:10;6.82;;;5.03;;
26634;SDS011;14490;54.208;37.686;2022-08-19T06:27:39;11.00;;;5.13;;
26634;SDS011;14490;54.208;37.686;2022-08-19T06:30:07;5.97;;;5.28;;
26634;SDS011;14490;54.208;37.686;2022-08-19T06:32:37;7.28;;;4.82;;
26634;SDS011;14490;54.208;37.686;2022-08-19T06:35:05;6.97;;;4.82;;
26634;SDS011;14490;54.208;37.686;2022-08-19T06:37:34;5.72;;;4.78;;
26634;SDS011;14490;54.208;37.686;2022-08-19T06:40:06;7.38;;;4.88;;
26634;SDS011;14490;54.208;37.686;2022-08-19T06:42:35;7.15;;;5.45;;
26634;SDS011;14490;54.208;37.686;2022-08-19T06:45:04;5.90;;;5.00;;
26634;SDS011;14490;54.208;37.686;2022-08-19T06:47:33;16.10;;;6.18;;
26634;SDS011;14490;54.208;37.686;2022-08-19T06:50:01;9.68;;;5.70;;
26634;SDS011;14490;54.208;37.686;2022-08-19T06:52:30;8.07;;;5.78;;
26634;SDS011;14490;54.208;37.686;2022-08-19T06:55:00;12.30;;;5.75;;
26634;SDS011;14490;54.208;37.686;2022-08-19T06:57:29;10.38;;;6.55;;
26634;SDS011;14490;54.208;37.686;2022-08-19T06:59:57;9.80;;;6.00;;
26634;SDS011;14490;54.208;37.686;2022-08-19T07:02:26;10.70;;;7.10;;
26634;SDS011;14490;54.208;37.686;2022-08-19T07:04:54;16.13;;;7.50;;
26634;SDS011;14490;54.208;37.686;2022-08-19T07:07:23;12.88;;;7.50;;
26634;SDS011;14490;54.208;37.686;2022-08-19T07:09:51;9.93;;;7.60;;
26634;SDS011;14490;54.208;37.686;2022-08-19T07:12:19;11.40;;;8.25;;
26634;SDS011;14490;54.208;37.686;2022-08-19T07:14:48;12.52;;;8.85;;
26634;SDS011;14490;54.208;37.686;2022-08-19T07:17:16;9.90;;;8.45;;
26634;SDS011;14490;54.208;37.686;2022-08-19T07:19:45;12.18;;;9.40;;
26634;SDS011;14490;54.208;37.686;2022-08-19T07:22:13;13.00;;;7.82;;
26634;SDS011;14490;54.208;37.686;2022-08-19T07:24:41;12.43;;;8.32;;
26634;SDS011;14490;54.208;37.686;2022-08-19T07:27:08;13.05;;;8.55;;
26634;SDS011;14490;54.208;37.686;2022-08-19T07:29:36;13.77;;;8.77;;
26634;SDS011;14490;54.208;37.686;2022-08-19T07:32:06;15.18;;;8.70;;
26634;SDS011;14490;54.208;37.686;2022-08-19T07:34:34;13.07;;;7.68;;
26634;SDS011;14490;54.208;37.686;2022-08-19T07:37:03;12.50;;;7.70;;
26634;SDS011;14490;54.208;37.686;2022-08-19T07:39:32;13.55;;;8.13;;
26634;SDS011;14490;54.208;37.686;2022-08-19T07:42:03;9.73;;;8.07;;
26634;SDS011;14490;54.208;37.686;2022-08-19T07:44:35;12.73;;;7.97;;
26634;SDS011;14490;54.208;37.686;2022-08-19T07:47:04;14.05;;;8.77;;
26634;SDS011;14490;54.208;37.686;2022-08-19T07:49:33;12.82;;;8.55;;
26634;SDS011;14490;54.208;37.686;2022-08-19T07:52:02;15.82;;;8.38;;
26634;SDS011;14490;54.208;37.686;2022-08-19T07:54:34;11.18;;;8.43;;
26634;SDS011;14490;54.208;37.686;2022-08-19T07:57:04;14.57;;;8.70;;
26634;SDS011;14490;54.208;37.686;2022-08-19T07:59:33;12.60;;;9.32;;
26634;SDS011;14490;54.208;37.686;2022-08-19T08:02:01;13.38;;;8.80;;
26634;SDS011;14490;54.208;37.686;2022-08-19T08:04:31;9.57;;;7.95;;
26634;SDS011;14490;54.208;37.686;2022-08-19T08:07:16;11.05;;;7.10;;
26634;SDS011;14490;54.208;37.686;2022-08-19T08:10:02;12.70;;;7.40;;
26634;SDS011;14490;54.208;37.686;2022-08-19T08:12:33;8.45;;;7.00;;
26634;SDS011;14490;54.208;37.686;2022-08-19T08:15:07;8.05;;;5.93;;
26634;SDS011;14490;54.208;37.686;2022-08-19T08:17:41;7.50;;;5.20;;
26634;SDS011;14490;54.208;37.686;2022-08-19T08:20:11;5.53;;;4.70;;
26634;SDS011;14490;54.208;37.686;2022-08-19T08:22:42;6.27;;;4.63;;
26634;SDS011;14490;54.208;37.686;2022-08-19T08:25:42;6.25;;;4.40;;
26634;SDS011;14490;54.208;37.686;2022-08-19T08:28:10;4.95;;;3.63;;
26634;SDS011;14490;54.208;37.686;2022-08-19T08:30:38;7.05;;;4.07;;
26634;SDS011;14490;54.208;37.686;2022-08-19T08:33:07;6.60;;;3.53;;
26634;SDS011;14490;54.208;37.686;2022-08-19T08:35:36;3.70;;;3.20;;
26634;SDS011;14490;54.208;37.686;2022-08-19T08:38:06;4.32;;;3.13;;
26634;SDS011;14490;54.208;37.686;2022-08-19T08:40:39;4.03;;;3.08;;
26634;SDS011;14490;54.208;37.686;2022-08-19T08:43:18;5.65;;;4.15;;
26634;SDS011;14490;54.208;37.686;2022-08-19T08:46:00;9.70;;;4.25;;
26634;SDS011;14490;54.208;37.686;2022-08-19T08:48:34;7.70;;;4.40;;
26634;SDS011;14490;54.208;37.686;2022-08-19T08:51:09;6.97;;;4.07;;
26634;SDS011;14490;54.208;37.686;2022-08-19T08:53:42;7.05;;;4.65;;
26634;SDS011;14490;54.208;37.686;2022-08-19T08:56:12;4.85;;;4.40;;
26634;SDS011;14490;54.208;37.686;2022-08-19T08:58:42;8.10;;;4.03;;
26634;SDS011;14490;54.208;37.686;2022-08-19T09:01:17;6.43;;;4.95;;
26634;SDS011;14490;54.208;37.686;2022-08-19T09:03:45;5.22;;;4.75;;
26634;SDS011;14490;54.208;37.686;2022-08-19T09:06:18;6.82;;;4.55;;
26634;SDS011;14490;54.208;37.686;2022-08-19T09:08:55;7.55;;;5.57;;
26634;SDS011;14490;54.208;37.686;2022-08-19T09:11:35;5.63;;;4.43;;
26634;SDS011;14490;54.208;37.686;2022-08-19T09:17:00;4.28;;;3.95;;
26634;SDS011;14490;54.208;37.686;2022-08-19T09:19:29;8.43;;;5.00;;
26634;SDS011;14490;54.208;37.686;2022-08-19T09:21:59;8.65;;;5.80;;
26634;SDS011;14490;54.208;37.686;2022-08-19T09:24:27;6.13;;;5.53;;
26634;SDS011;14490;54.208;37.686;2022-08-19T09:26:54;6.07;;;5.50;;
26634;SDS011;14490;54.208;37.686;2022-08-19T09:29:22;5.93;;;5.43;;
26634;SDS011;14490;54.208;37.686;2022-08-19T09:31:50;6.47;;;5.78;;
26634;SDS011;14490;54.208;37.686;2022-08-19T09:34:18;8.98;;;6.15;;
26634;SDS011;14490;54.208;37.686;2022-08-19T09:36:46;5.90;;;5.30;;
26634;SDS011;14490;54.208;37.686;2022-08-19T09:39:20;7.35;;;5.38;;
26634;SDS011;14490;54.208;37.686;2022-08-19T09:41:48;5.93;;;5.05;;
26634;SDS011;14490;54.208;37.686;2022-08-19T09:44:16;6.03;;;5.53;;
26634;SDS011;14490;54.208;37.686;2022-08-19T09:46:45;5.10;;;4.60;;
26634;SDS011;14490;54.208;37.686;2022-08-19T09:49:13;5.82;;;5.20;;
26634;SDS011;14490;54.208;37.686;2022-08-19T09:51:42;6.45;;;5.13;;
26634;SDS011;14490;54.208;37.686;2022-08-19T09:54:10;6.18;;;4.88;;
26634;SDS011;14490;54.208;37.686;2022-08-19T09:56:39;7.13;;;4.78;;
26634;SDS011;14490;54.208;37.686;2022-08-19T09:59:07;6.10;;;5.15;;
26634;SDS011;14490;54.208;37.686;2022-08-19T10:01:35;5.32;;;4.68;;
26634;SDS011;14490;54.208;37.686;2022-08-19T10:04:03;6.07;;;4.22;;
26634;SDS011;14490;54.208;37.686;2022-08-19T10:06:33;4.93;;;4.50;;
26634;SDS011;14490;54.208;37.686;2022-08-19T10:09:03;5.35;;;4.85;;
26634;SDS011;14490;54.208;37.686;2022-08-19T10:11:31;5.20;;;4.70;;
26634;SDS011;14490;54.208;37.686;2022-08-19T10:14:04;8.95;;;4.35;;
26634;SDS011;14490;54.208;37.686;2022-08-19T10:16:32;5.65;;;4.72;;
26634;SDS011;14490;54.208;37.686;2022-08-19T10:19:01;4.85;;;4.30;;
26634;SDS011;14490;54.208;37.686;2022-08-19T10:21:31;7.15;;;3.75;;
26634;SDS011;14490;54.208;37.686;2022-08-19T10:26:31;4.55;;;4.03;;
26634;SDS011;14490;54.208;37.686;2022-08-19T10:29:04;5.70;;;4.03;;
26634;SDS011;14490;54.208;37.686;2022-08-19T10:31:32;6.03;;;3.05;;
26634;SDS011;14490;54.208;37.686;2022-08-19T10:34:01;4.38;;;3.97;;
26634;SDS011;14490;54.208;37.686;2022-08-19T10:36:29;4.25;;;3.28;;
26634;SDS011;14490;54.208;37.686;2022-08-19T10:39:02;4.10;;;3.65;;
26634;SDS011;14490;54.208;37.686;2022-08-19T10:41:34;11.52;;;3.55;;
26634;SDS011;14490;54.208;37.686;2022-08-19T10:44:05;6.25;;;4.00;;
26634;SDS011;14490;54.208;37.686;2022-08-19T10:46:36;3.88;;;3.58;;
26634;SDS011;14490;54.208;37.686;2022-08-19T10:51:37;6.45;;;2.92;;
26634;SDS011;14490;54.208;37.686;2022-08-19T10:54:23;5.97;;;3.10;;
26634;SDS011;14490;54.208;37.686;2022-08-19T10:57:11;3.30;;;3.00;;
26634;SDS011;14490;54.208;37.686;2022-08-19T10:59:39;6.20;;;2.90;;
26634;SDS011;14490;54.208;37.686;2022-08-19T11:02:08;4.72;;;2.67;;
26634;SDS011;14490;54.208;37.686;2022-08-19T11:04:38;8.02;;;2.92;;
26634;SDS011;14490;54.208;37.686;2022-08-19T11:07:06;7.03;;;2.70;;
26634;SDS011;14490;54.208;37.686;2022-08-19T11:09:37;5.88;;;3.20;;
26634;SDS011;14490;54.208;37.686;2022-08-19T11:12:08;6.15;;;2.83;;
26634;SDS011;14490;54.208;37.686;2022-08-19T11:14:39;6.63;;;3.08;;
26634;SDS011;14490;54.208;37.686;2022-08-19T11:17:06;3.97;;;2.80;;
26634;SDS011;14490;54.208;37.686;2022-08-19T11:19:36;5.93;;;2.67;;
26634;SDS011;14490;54.208;37.686;2022-08-19T11:22:03;9.25;;;2.47;;
26634;SDS011;14490;54.208;37.686;2022-08-19T11:24:35;3.83;;;2.72;;
26634;SDS011;14490;54.208;37.686;2022-08-19T11:27:04;4.50;;;2.63;;
26634;SDS011;14490;54.208;37.686;2022-08-19T11:29:35;8.63;;;2.90;;
26634;SDS011;14490;54.208;37.686;2022-08-19T11:32:06;2.97;;;2.47;;
26634;SDS011;14490;54.208;37.686;2022-08-19T11:34:38;3.20;;;2.80;;
26634;SDS011;14490;54.208;37.686;2022-08-19T11:37:05;4.05;;;2.35;;
26634;SDS011;14490;54.208;37.686;2022-08-19T11:39:34;3.83;;;2.50;;
26634;SDS011;14490;54.208;37.686;2022-08-19T11:42:03;4.55;;;2.47;;
26634;SDS011;14490;54.208;37.686;2022-08-19T11:44:54;3.00;;;2.60;;
26634;SDS011;14490;54.208;37.686;2022-08-19T11:47:22;6.00;;;2.50;;
26634;SDS011;14490;54.208;37.686;2022-08-19T11:49:51;7.68;;;3.03;;
26634;SDS011;14490;54.208;37.686;2022-08-19T11:52:19;5.07;;;3.03;;
26634;SDS011;14490;54.208;37.686;2022-08-19T11:54:47;4.63;;;2.40;;
26634;SDS011;14490;54.208;37.686;2022-08-19T11:57:14;7.97;;;2.55;;
26634;SDS011;14490;54.208;37.686;2022-08-19T11:59:42;5.78;;;2.72;;
26634;SDS011;14490;54.208;37.686;2022-08-19T12:02:17;6.47;;;3.10;;
26634;SDS011;14490;54.208;37.686;2022-08-19T12:04:45;9.10;;;3.20;;
26634;SDS011;14490;54.208;37.686;2022-08-19T12:07:13;3.88;;;2.90;;
26634;SDS011;14490;54.208;37.686;2022-08-19T12:09:40;5.97;;;3.55;;
26634;SDS011;14490;54.208;37.686;2022-08-19T12:12:08;3.65;;;2.75;;
26634;SDS011;14490;54.208;37.686;2022-08-19T12:14:36;5.63;;;3.17;;
26634;SDS011;14490;54.208;37.686;2022-08-19T12:17:03;5.18;;;3.38;;
26634;SDS011;14490;54.208;37.686;2022-08-19T12:19:35;4.55;;;3.00;;
26634;SDS011;14490;54.208;37.686;2022-08-19T12:22:04;6.13;;;3.60;;
26634;SDS011;14490;54.208;37.686;2022-08-19T12:24:32;5.53;;;3.28;;
26634;SDS011;14490;54.208;37.686;2022-08-19T12:27:01;5.85;;;2.95;;
26634;SDS011;14490;54.208;37.686;2022-08-19T12:29:28;5.43;;;2.70;;
26634;SDS011;14490;54.208;37.686;2022-08-19T12:31:57;4.80;;;2.58;;
26634;SDS011;14490;54.208;37.686;2022-08-19T12:34:26;5.15;;;2.80;;
26634;SDS011;14490;54.208;37.686;2022-08-19T12:36:58;5.03;;;2.30;;
26634;SDS011;14490;54.208;37.686;2022-08-19T12:39:30;10.07;;;3.08;;
26634;SDS011;14490;54.208;37.686;2022-08-19T12:44:28;5.15;;;2.60;;
26634;SDS011;14490;54.208;37.686;2022-08-19T12:46:57;5.18;;;3.08;;
26634;SDS011;14490;54.208;37.686;2022-08-19T12:49:26;5.43;;;3.17;;
26634;SDS011;14490;54.208;37.686;2022-08-19T12:51:54;3.33;;;2.10;;
26634;SDS011;14490;54.208;37.686;2022-08-19T12:54:24;7.20;;;2.72;;
26634;SDS011;14490;54.208;37.686;2022-08-19T12:56:52;5.43;;;2.45;;
26634;SDS011;14490;54.208;37.686;2022-08-19T12:59:20;6.28;;;1.92;;
26634;SDS011;14490;54.208;37.686;2022-08-19T13:01:48;1.85;;;1.70;;
26634;SDS011;14490;54.208;37.686;2022-08-19T13:04:15;4.18;;;2.38;;
26634;SDS011;14490;54.208;37.686;2022-08-19T13:06:44;6.43;;;2.30;;
26634;SDS011;14490;54.208;37.686;2022-08-19T13:09:11;3.47;;;2.22;;
26634;SDS011;14490;54.208;37.686;2022-08-19T13:11:40;9.20;;;2.28;;
26634;SDS011;14490;54.208;37.686;2022-08-19T13:14:08;4.82;;;1.88;;
26634;SDS011;14490;54.208;37.686;2022-08-19T13:16:37;5.45;;;2.20;;
26634;SDS011;14490;54.208;37.686;2022-08-19T13:19:05;7.72;;;2.63;;
26634;SDS011;14490;54.208;37.686;2022-08-19T13:21:33;6.00;;;2.25;;
26634;SDS011;14490;54.208;37.686;2022-08-19T13:24:01;5.93;;;2.60;;
26634;SDS011;14490;54.208;37.686;2022-08-19T13:26:30;7.18;;;2.42;;
26634;SDS011;14490;54.208;37.686;2022-08-19T13:28:59;5.55;;;2.72;;
26634;SDS011;14490;54.208;37.686;2022-08-19T13:31:44;3.08;;;2.55;;
26634;SDS011;14490;54.208;37.686;2022-08-19T13:34:30;4.25;;;2.63;;
26634;SDS011;14490;54.208;37.686;2022-08-19T13:37:01;5.40;;;3.08;;
26634;SDS011;14490;54.208;37.686;2022-08-19T13:39:30;6.55;;;2.90;;
26634;SDS011;14490;54.208;37.686;2022-08-19T13:41:59;4.15;;;3.22;;
26634;SDS011;14490;54.208;37.686;2022-08-19T13:44:28;5.43;;;3.42;;
26634;SDS011;14490;54.208;37.686;2022-08-19T13:47:00;3.90;;;2.65;;
26634;SDS011;14490;54.208;37.686;2022-08-19T13:49:32;4.88;;;2.55;;
26634;SDS011;14490;54.208;37.686;2022-08-19T13:52:01;3.58;;;2.78;;
26634;SDS011;14490;54.208;37.686;2022-08-19T13:54:29;9.90;;;2.90;;
26634;SDS011;14490;54.208;37.686;2022-08-19T13:56:57;6.20;;;2.85;;
26634;SDS011;14490;54.208;37.686;2022-08-19T13:59:25;8.75;;;3.55;;
26634;SDS011;14490;54.208;37.686;2022-08-19T14:01:56;7.53;;;3.13;;
26634;SDS011;14490;54.208;37.686;2022-08-19T14:04:25;6.85;;;2.85;;
26634;SDS011;14490;54.208;37.686;2022-08-19T14:06:52;4.97;;;2.97;;
26634;SDS011;14490;54.208;37.686;2022-08-19T14:09:20;4.88;;;3.22;;
26634;SDS011;14490;54.208;37.686;2022-08-19T14:11:48;4.38;;;3.25;;
26634;SDS011;14490;54.208;37.686;2022-08-19T14:14:16;6.07;;;3.58;;
26634;SDS011;14490;54.208;37.686;2022-08-19T14:16:43;6.05;;;4.00;;
26634;SDS011;14490;54.208;37.686;2022-08-19T14:19:12;4.25;;;3.28;;
26634;SDS011;14490;54.208;37.686;2022-08-19T14:21:41;4.10;;;3.45;;
26634;SDS011;14490;54.208;37.686;2022-08-19T14:24:09;7.28;;;3.45;;
26634;SDS011;14490;54.208;37.686;2022-08-19T14:26:36;7.10;;;3.67;;
26634;SDS011;14490;54.208;37.686;2022-08-19T14:29:04;6.85;;;3.72;;
26634;SDS011;14490;54.208;37.686;2022-08-19T14:31:32;5.32;;;4.07;;
26634;SDS011;14490;54.208;37.686;2022-08-19T14:34:00;7.53;;;5.15;;
26634;SDS011;14490;54.208;37.686;2022-08-19T14:36:29;5.32;;;3.92;;
26634;SDS011;14490;54.208;37.686;2022-08-19T14:41:27;5.32;;;3.13;;
26634;SDS011;14490;54.208;37.686;2022-08-19T14:43:55;8.25;;;4.30;;
26634;SDS011;14490;54.208;37.686;2022-08-19T14:46:26;11.20;;;4.55;;
26634;SDS011;14490;54.208;37.686;2022-08-19T14:48:55;9.45;;;4.63;;
26634;SDS011;14490;54.208;37.686;2022-08-19T14:51:24;4.07;;;3.63;;
26634;SDS011;14490;54.208;37.686;2022-08-19T14:53:54;5.45;;;4.43;;
26634;SDS011;14490;54.208;37.686;2022-08-19T14:56:24;4.45;;;3.97;;
26634;SDS011;14490;54.208;37.686;2022-08-19T14:58:53;6.50;;;4.13;;
26634;SDS011;14490;54.208;37.686;2022-08-19T15:01:24;7.43;;;3.65;;
26634;SDS011;14490;54.208;37.686;2022-08-19T15:03:54;8.10;;;5.20;;
26634;SDS011;14490;54.208;37.686;2022-08-19T15:06:22;8.40;;;4.50;;